createdAt,value
2019-05-18T00:01:36.614Z,8.00
2019-05-18T00:04:06.600Z,7.90
2019-05-18T00:06:36.411Z,7.90
2019-05-18T00:09:07.031Z,7.80
2019-05-18T00:11:36.838Z,7.80
2019-05-18T00:14:06.730Z,7.70
2019-05-18T00:16:36.622Z,7.70
2019-05-18T00:19:06.518Z,7.60
2019-05-18T00:21:36.255Z,7.50
2019-05-18T00:24:06.212Z,7.50
2019-05-18T00:26:36.310Z,7.50
2019-05-18T00:29:06.359Z,7.40
2019-05-18T00:31:37.315Z,7.50
2019-05-18T00:34:07.486Z,7.40
2019-05-18T00:36:37.407Z,7.30
2019-05-18T00:39:07.917Z,7.30
2019-05-18T00:41:37.949Z,7.20
2019-05-18T00:44:08.201Z,7.20
2019-05-18T00:46:38.506Z,7.20
2019-05-18T00:49:08.423Z,7.10
2019-05-18T00:51:38.348Z,7.00
2019-05-18T00:54:08.302Z,7.00
2019-05-18T00:56:38.190Z,7.00
2019-05-18T00:59:08.059Z,6.90
2019-05-18T01:01:37.919Z,6.90
2019-05-18T01:04:07.739Z,6.90
2019-05-18T01:06:37.627Z,6.90
2019-05-18T01:09:07.679Z,6.90
2019-05-18T01:11:37.567Z,6.90
2019-05-18T01:14:07.460Z,6.90
2019-05-18T01:16:37.334Z,6.80
2019-05-18T01:19:07.519Z,6.80
2019-05-18T01:21:37.340Z,6.80
2019-05-18T01:24:07.238Z,6.80
2019-05-18T01:26:37.319Z,6.80
2019-05-18T01:29:07.300Z,6.70
2019-05-18T01:31:37.192Z,6.70
2019-05-18T01:34:07.082Z,6.70
2019-05-18T01:36:37.937Z,6.70
2019-05-18T01:39:07.841Z,6.70
2019-05-18T01:41:37.572Z,6.70
2019-05-18T01:44:07.469Z,6.70
2019-05-18T01:46:37.526Z,6.70
2019-05-18T01:49:07.350Z,6.70
2019-05-18T01:51:37.433Z,6.70
2019-05-18T01:54:07.710Z,6.60
2019-05-18T01:56:37.560Z,6.60
2019-05-18T01:59:07.689Z,6.60
2019-05-18T02:01:37.553Z,6.60
2019-05-18T02:04:07.632Z,6.60
2019-05-18T02:06:37.555Z,6.50
2019-05-18T02:09:09.069Z,6.60
2019-05-18T02:11:38.908Z,6.50
2019-05-18T02:14:08.910Z,6.50
2019-05-18T02:16:38.787Z,6.50
2019-05-18T02:19:08.714Z,6.40
2019-05-18T02:21:38.527Z,6.40
2019-05-18T02:24:08.428Z,6.30
2019-05-18T02:26:38.299Z,6.30
2019-05-18T02:29:08.021Z,6.30
2019-05-18T02:31:37.846Z,6.30
2019-05-18T02:34:07.646Z,6.20
2019-05-18T02:36:37.485Z,6.20
2019-05-18T02:39:08.047Z,6.20
2019-05-18T02:41:37.864Z,6.20
2019-05-18T02:44:07.815Z,6.20
2019-05-18T02:46:37.693Z,6.10
2019-05-18T02:49:07.539Z,6.10
2019-05-18T02:51:37.435Z,6.00
2019-05-18T02:54:07.572Z,6.00
2019-05-18T02:56:38.223Z,5.90
2019-05-18T02:59:08.102Z,5.90
2019-05-18T03:01:38.006Z,6.00
2019-05-18T03:04:07.883Z,6.00
2019-05-18T03:06:37.766Z,6.00
2019-05-18T03:09:07.697Z,6.10
2019-05-18T03:11:37.613Z,6.10
2019-05-18T03:14:07.486Z,6.10
2019-05-18T03:16:37.371Z,6.10
2019-05-18T03:19:09.118Z,6.10
2019-05-18T03:21:39.212Z,6.20
2019-05-18T03:24:09.220Z,6.20
2019-05-18T03:26:40.012Z,6.10
2019-05-18T03:29:09.815Z,6.20
2019-05-18T03:31:39.794Z,6.20
2019-05-18T03:34:09.626Z,6.20
2019-05-18T03:36:39.569Z,6.10
2019-05-18T03:39:09.375Z,6.10
2019-05-18T03:41:39.369Z,6.20
2019-05-18T03:44:09.322Z,6.30
2019-05-18T03:46:39.471Z,6.30
2019-05-18T03:49:25.315Z,6.30
2019-05-18T03:51:40.782Z,6.40
2019-05-18T03:54:10.584Z,6.50
2019-05-18T03:56:40.397Z,6.60
2019-05-18T03:59:10.198Z,6.70
2019-05-18T04:01:39.966Z,6.80
2019-05-18T04:04:09.766Z,6.80
2019-05-18T04:06:39.899Z,7.00
2019-05-18T04:09:09.997Z,7.00
2019-05-18T04:11:39.966Z,7.10
2019-05-18T04:14:10.066Z,7.30
2019-05-18T04:16:40.005Z,7.40
2019-05-18T04:19:10.360Z,7.60
2019-05-18T04:21:40.350Z,7.70
2019-05-18T04:24:10.138Z,8.00
2019-05-18T04:26:39.947Z,8.00
2019-05-18T04:29:09.686Z,8.20
2019-05-18T04:31:39.507Z,8.30
2019-05-18T04:34:09.387Z,8.50
2019-05-18T04:36:39.286Z,8.60
2019-05-18T04:39:09.094Z,8.80
2019-05-18T04:41:39.235Z,8.90
2019-05-18T04:44:08.967Z,9.10
2019-05-18T04:46:38.771Z,9.20
2019-05-18T04:49:08.650Z,9.20
2019-05-18T04:51:38.422Z,9.30
2019-05-18T04:54:08.229Z,9.30
2019-05-18T04:56:38.025Z,9.40
2019-05-18T04:59:07.887Z,9.50
2019-05-18T05:01:37.966Z,9.60
2019-05-18T05:04:08.082Z,9.60
2019-05-18T05:06:37.878Z,9.70
2019-05-18T05:09:08.473Z,9.90
2019-05-18T05:11:38.271Z,9.90
2019-05-18T05:14:08.167Z,9.90
2019-05-18T05:16:38.738Z,10.00
2019-05-18T05:19:08.955Z,10.20
2019-05-18T05:21:38.769Z,10.30
2019-05-18T05:24:08.505Z,10.50
2019-05-18T05:26:39.638Z,10.60
2019-05-18T05:29:09.757Z,10.80
2019-05-18T05:31:39.830Z,10.90
2019-05-18T05:34:09.650Z,11.00
2019-05-18T05:36:39.401Z,11.20
2019-05-18T05:39:09.451Z,11.30
2019-05-18T05:41:39.189Z,11.30
2019-05-18T05:44:09.217Z,11.40
2019-05-18T05:46:38.950Z,11.40
2019-05-18T05:49:09.293Z,11.50
2019-05-18T05:51:39.033Z,11.70
2019-05-18T05:54:08.866Z,11.90
2019-05-18T05:56:38.605Z,11.90
2019-05-18T05:59:08.686Z,11.80
2019-05-18T06:01:38.785Z,11.80
2019-05-18T06:04:09.516Z,11.90
2019-05-18T06:06:39.629Z,12.10
2019-05-18T06:09:09.591Z,12.10
2019-05-18T06:11:39.482Z,12.00
2019-05-18T06:14:09.264Z,12.00
2019-05-18T06:16:39.498Z,11.80
2019-05-18T06:19:09.346Z,11.80
2019-05-18T06:21:39.092Z,11.80
2019-05-18T06:24:09.111Z,11.80
2019-05-18T06:26:38.842Z,11.80
2019-05-18T06:29:08.842Z,11.80
2019-05-18T06:31:38.900Z,12.10
2019-05-18T06:34:08.718Z,12.50
2019-05-18T06:36:38.530Z,12.90
2019-05-18T06:39:08.742Z,13.50
2019-05-18T06:41:38.629Z,14.30
2019-05-18T06:44:08.513Z,15.40
2019-05-18T06:46:38.578Z,16.50
2019-05-18T06:49:08.329Z,16.80
2019-05-18T06:51:38.771Z,17.90
2019-05-18T06:54:08.706Z,18.40
2019-05-18T06:56:39.035Z,19.40
2019-05-18T06:59:09.793Z,19.90
2019-05-18T07:01:39.878Z,20.20
2019-05-18T07:04:09.636Z,20.90
2019-05-18T07:06:39.509Z,21.00
2019-05-18T07:09:14.081Z,22.50
2019-05-18T07:11:41.549Z,23.20
2019-05-18T07:14:24.993Z,23.20
2019-05-18T07:16:42.974Z,22.40
2019-05-18T07:19:12.877Z,23.10
2019-05-18T07:21:42.706Z,23.30
2019-05-18T07:24:12.601Z,23.10
2019-05-18T07:26:42.486Z,22.80
2019-05-18T07:29:12.226Z,22.90
2019-05-18T07:31:42.119Z,25.10
2019-05-18T07:34:12.021Z,25.20
2019-05-18T07:36:41.829Z,25.00
2019-05-18T07:39:11.733Z,23.60
2019-05-18T07:41:46.797Z,22.90
2019-05-18T07:44:13.233Z,23.30
2019-05-18T07:46:43.045Z,24.90
2019-05-18T07:49:12.877Z,25.40
2019-05-18T07:51:42.769Z,25.80
2019-05-18T07:54:12.585Z,25.50
2019-05-18T07:56:42.326Z,25.00
2019-05-18T07:59:12.219Z,24.80
2019-05-18T08:01:42.029Z,26.10
2019-05-18T08:04:11.889Z,26.00
2019-05-18T08:06:41.638Z,25.00
2019-05-18T08:09:12.486Z,25.10
2019-05-18T08:11:42.719Z,25.10
2019-05-18T08:14:13.533Z,24.80
2019-05-18T08:16:43.349Z,25.60
2019-05-18T08:19:13.651Z,26.40
2019-05-18T08:21:52.937Z,26.60
2019-05-18T08:24:15.614Z,26.20
2019-05-18T08:26:45.451Z,27.00
2019-05-18T08:29:15.529Z,27.60
2019-05-18T08:31:46.065Z,27.90
2019-05-18T08:34:16.543Z,28.90
2019-05-18T08:36:46.585Z,28.40
2019-05-18T08:39:17.276Z,28.10
2019-05-18T08:41:48.889Z,27.80
2019-05-18T08:44:19.089Z,27.90
2019-05-18T08:46:50.342Z,27.30
2019-05-18T08:49:20.387Z,26.70
2019-05-18T08:51:51.445Z,28.00
2019-05-18T08:54:21.638Z,28.70
2019-05-18T08:56:54.886Z,29.30
2019-05-18T08:59:24.701Z,31.40
2019-05-18T09:01:54.904Z,28.50
2019-05-18T09:04:24.748Z,26.10
2019-05-18T09:06:55.070Z,27.60
2019-05-18T09:09:24.982Z,28.10
2019-05-18T09:11:55.274Z,28.20
2019-05-18T09:14:25.776Z,28.70
2019-05-18T09:16:56.106Z,28.50
2019-05-18T09:19:26.422Z,28.00
2019-05-18T09:21:56.575Z,27.10
2019-05-18T09:24:28.339Z,27.10
2019-05-18T09:27:01.314Z,27.90
2019-05-18T09:29:31.450Z,29.20
2019-05-18T09:32:01.430Z,29.50
2019-05-18T09:34:31.333Z,28.90
2019-05-18T09:37:01.549Z,28.40
2019-05-18T09:39:31.945Z,28.50
2019-05-18T09:42:02.171Z,29.50
2019-05-18T09:44:32.374Z,30.30
2019-05-18T09:47:02.570Z,28.90
2019-05-18T09:49:32.601Z,30.70
2019-05-18T09:52:02.773Z,30.70
2019-05-18T09:54:33.261Z,29.20
2019-05-18T09:57:03.230Z,29.60
2019-05-18T09:59:33.339Z,30.20
2019-05-18T10:02:03.850Z,29.90
2019-05-18T10:04:34.152Z,30.60
2019-05-18T10:07:04.209Z,32.10
2019-05-18T10:09:39.277Z,32.50
2019-05-18T10:12:06.639Z,31.40
2019-05-18T10:14:36.467Z,30.30
2019-05-18T10:17:06.506Z,30.80
2019-05-18T10:19:36.588Z,30.60
2019-05-18T10:22:07.325Z,31.60
2019-05-18T10:24:37.773Z,30.70
2019-05-18T10:27:10.941Z,31.40
2019-05-18T10:29:40.898Z,30.60
2019-05-18T10:32:10.706Z,29.70
2019-05-18T10:34:41.430Z,32.20
2019-05-18T10:37:11.366Z,32.60
2019-05-18T10:39:41.337Z,32.00
2019-05-18T10:42:11.499Z,31.10
2019-05-18T10:44:41.665Z,30.50
2019-05-18T10:47:11.798Z,30.50
2019-05-18T10:49:41.633Z,32.20
2019-05-18T10:52:11.590Z,32.90
2019-05-18T10:54:41.510Z,30.20
2019-05-18T10:57:11.662Z,30.00
2019-05-18T10:59:41.788Z,30.50
2019-05-18T11:02:11.799Z,29.70
2019-05-18T11:04:41.616Z,28.40
2019-05-18T11:07:11.534Z,27.60
2019-05-18T11:09:41.376Z,28.90
2019-05-18T11:12:11.275Z,28.70
2019-05-18T11:14:41.097Z,29.70
2019-05-18T11:17:11.238Z,28.70
2019-05-18T11:19:41.103Z,28.40
2019-05-18T11:22:11.032Z,27.20
2019-05-18T11:24:40.871Z,27.90
2019-05-18T11:27:10.706Z,28.10
2019-05-18T11:29:40.503Z,28.60
2019-05-18T11:32:10.494Z,29.80
2019-05-18T11:34:41.927Z,29.10
2019-05-18T11:37:12.080Z,30.60
2019-05-18T11:39:42.640Z,31.70
2019-05-18T11:42:14.238Z,31.30
2019-05-18T11:44:44.477Z,30.20
2019-05-18T11:47:14.617Z,31.40
2019-05-18T11:49:44.798Z,29.70
2019-05-18T11:52:15.584Z,29.60
2019-05-18T11:54:46.566Z,30.40
2019-05-18T11:57:16.687Z,30.80
2019-05-18T11:59:47.054Z,30.70
2019-05-18T12:02:16.883Z,31.30
2019-05-18T12:04:48.797Z,30.80
2019-05-18T12:07:19.053Z,30.90
2019-05-18T12:09:49.267Z,31.20
2019-05-18T12:12:22.890Z,30.70
2019-05-18T12:14:52.682Z,31.20
2019-05-18T12:17:22.683Z,30.10
2019-05-18T12:19:53.575Z,28.20
2019-05-18T12:22:24.774Z,28.00
2019-05-18T12:24:55.306Z,28.10
2019-05-18T12:27:25.760Z,28.30
2019-05-18T12:29:55.691Z,29.00
2019-05-18T12:32:27.606Z,28.20
2019-05-18T12:34:58.327Z,26.20
2019-05-18T12:37:28.275Z,27.20
2019-05-18T12:39:58.142Z,28.20
2019-05-18T12:42:28.145Z,29.20
2019-05-18T12:44:58.275Z,28.70
2019-05-18T12:47:28.014Z,28.90
2019-05-18T12:49:58.033Z,26.90
2019-05-18T12:52:28.378Z,26.70
2019-05-18T12:54:58.248Z,27.90
2019-05-18T12:57:28.370Z,28.30
2019-05-18T12:59:58.373Z,26.20
2019-05-18T13:02:28.415Z,26.80
2019-05-18T13:04:58.478Z,26.40
2019-05-18T13:07:28.341Z,28.00
2019-05-18T13:09:58.402Z,27.20
2019-05-18T13:12:28.582Z,28.80
2019-05-18T13:14:58.896Z,28.40
2019-05-18T13:17:28.656Z,25.90
2019-05-18T13:19:58.517Z,25.30
2019-05-18T13:22:28.634Z,26.40
2019-05-18T13:24:59.786Z,25.80
2019-05-18T13:27:38.773Z,25.20
2019-05-18T13:30:02.048Z,25.10
2019-05-18T13:32:32.203Z,26.70
2019-05-18T13:35:02.282Z,27.50
2019-05-18T13:37:32.246Z,27.30
2019-05-18T13:40:02.100Z,27.40
2019-05-18T13:42:33.063Z,26.70
2019-05-18T13:45:02.885Z,26.20
2019-05-18T13:47:32.950Z,25.80
2019-05-18T13:50:02.776Z,25.20
2019-05-18T13:52:33.224Z,24.90
2019-05-18T13:55:04.976Z,25.60
2019-05-18T13:57:36.089Z,25.20
2019-05-18T14:00:07.360Z,24.60
2019-05-18T14:02:37.186Z,24.90
2019-05-18T14:05:13.329Z,25.50
2019-05-18T14:07:43.446Z,24.90
2019-05-18T14:10:14.265Z,25.20
2019-05-18T14:12:44.105Z,24.40
2019-05-18T14:15:15.173Z,24.40
2019-05-18T14:17:45.007Z,24.70
2019-05-18T14:20:15.217Z,24.40
2019-05-18T14:22:45.331Z,23.80
2019-05-18T14:25:19.972Z,23.70
2019-05-18T14:27:46.750Z,23.30
2019-05-18T14:30:18.275Z,23.90
2019-05-18T14:32:48.302Z,23.90
2019-05-18T14:35:18.558Z,24.00
2019-05-18T14:37:48.389Z,23.60
2019-05-18T14:40:18.662Z,23.20
2019-05-18T14:42:48.681Z,23.40
2019-05-18T14:45:19.636Z,23.50
2019-05-18T14:47:49.383Z,23.60
2019-05-18T14:50:20.274Z,23.80
2019-05-18T14:52:50.201Z,23.70
2019-05-18T14:55:32.838Z,23.90
2019-05-18T14:57:51.654Z,23.20
2019-05-18T15:00:21.969Z,23.10
2019-05-18T15:02:51.989Z,23.20
2019-05-18T15:05:22.355Z,23.50
2019-05-18T15:07:52.191Z,23.30
2019-05-18T15:10:22.795Z,22.90
2019-05-18T15:12:53.303Z,22.30
2019-05-18T15:15:25.062Z,22.00
2019-05-18T15:17:55.260Z,22.00
2019-05-18T15:20:25.402Z,22.10
2019-05-18T15:22:55.655Z,22.10
2019-05-18T15:25:25.843Z,22.20
2019-05-18T15:27:55.957Z,22.40
2019-05-18T15:30:27.182Z,22.40
2019-05-18T15:32:57.699Z,22.20
2019-05-18T15:35:27.811Z,22.60
2019-05-18T15:37:58.466Z,22.90
2019-05-18T15:40:31.466Z,22.30
2019-05-18T15:43:01.778Z,22.00
2019-05-18T15:45:32.082Z,22.30
2019-05-18T15:48:02.134Z,22.10
2019-05-18T15:50:33.511Z,22.20
2019-05-18T15:53:03.643Z,22.00
2019-05-18T15:55:33.770Z,21.80
2019-05-18T15:58:03.970Z,21.70
2019-05-18T16:00:34.679Z,21.90
2019-05-18T16:03:04.887Z,21.90
2019-05-18T16:05:35.042Z,22.10
2019-05-18T16:08:05.555Z,21.80
2019-05-18T16:10:35.890Z,22.20
2019-05-18T16:13:06.263Z,22.20
2019-05-18T16:15:36.503Z,22.50
2019-05-18T16:18:06.702Z,22.40
2019-05-18T16:20:36.878Z,22.50
2019-05-18T16:23:07.206Z,22.60
2019-05-18T16:25:37.712Z,22.60
2019-05-18T16:28:08.327Z,22.60
2019-05-18T16:30:38.553Z,22.60
2019-05-18T16:33:08.566Z,22.40
2019-05-18T16:35:38.942Z,22.30
2019-05-18T16:38:08.870Z,22.10
2019-05-18T16:40:38.846Z,22.10
2019-05-18T16:43:09.147Z,21.80
2019-05-18T16:45:39.142Z,21.80
2019-05-18T16:48:09.093Z,22.00
2019-05-18T16:50:39.037Z,21.90
2019-05-18T16:53:08.887Z,21.90
2019-05-18T16:55:38.894Z,22.00
2019-05-18T16:58:08.965Z,21.80
2019-05-18T17:00:38.950Z,21.60
2019-05-18T17:03:09.015Z,21.70
2019-05-18T17:05:39.045Z,21.50
2019-05-18T17:08:09.045Z,21.50
2019-05-18T17:10:39.036Z,21.30
2019-05-18T17:13:09.020Z,21.30
2019-05-18T17:15:39.091Z,21.30
2019-05-18T17:18:09.144Z,20.90
2019-05-18T17:20:39.106Z,20.70
2019-05-18T17:23:10.091Z,20.60
2019-05-18T17:25:40.106Z,20.50
2019-05-18T17:28:10.147Z,20.40
2019-05-18T17:30:42.632Z,20.40
2019-05-18T17:33:11.670Z,20.10
2019-05-18T17:35:41.689Z,20.00
2019-05-18T17:38:12.704Z,19.80
2019-05-18T17:40:42.676Z,19.70
2019-05-18T17:43:12.754Z,19.50
2019-05-18T17:45:42.891Z,19.30
2019-05-18T17:48:12.894Z,19.10
2019-05-18T17:50:42.895Z,19.00
2019-05-18T17:53:12.902Z,18.90
2019-05-18T17:55:42.914Z,18.80
2019-05-18T17:58:12.938Z,18.60
2019-05-18T18:00:42.957Z,18.50
2019-05-18T18:03:12.963Z,18.40
2019-05-18T18:05:43.015Z,18.30
2019-05-18T18:08:13.063Z,18.20
2019-05-18T18:10:43.136Z,18.00
2019-05-18T18:13:13.248Z,17.90
2019-05-18T18:15:43.438Z,17.80
2019-05-18T18:18:13.560Z,17.70
2019-05-18T18:20:43.691Z,17.70
2019-05-18T18:23:13.790Z,17.50
2019-05-18T18:25:43.723Z,17.50
2019-05-18T18:28:13.835Z,17.40
2019-05-18T18:30:44.002Z,17.40
2019-05-18T18:33:13.867Z,17.20
2019-05-18T18:35:43.884Z,17.10
2019-05-18T18:38:14.156Z,16.90
2019-05-18T18:40:44.675Z,16.90
2019-05-18T18:43:15.268Z,16.80
2019-05-18T18:45:45.995Z,16.80
2019-05-18T18:48:16.297Z,16.80
2019-05-18T18:50:46.466Z,16.70
2019-05-18T18:53:18.070Z,16.60
2019-05-18T18:55:48.101Z,16.60
2019-05-18T18:58:18.163Z,16.50
2019-05-18T19:00:48.464Z,16.50
2019-05-18T19:03:18.708Z,16.50
2019-05-18T19:05:48.775Z,16.40
2019-05-18T19:08:18.823Z,16.40
2019-05-18T19:10:48.940Z,16.20
2019-05-18T19:13:19.005Z,16.00
2019-05-18T19:15:49.057Z,15.80
2019-05-18T19:18:19.076Z,15.70
2019-05-18T19:20:49.404Z,15.50
2019-05-18T19:23:19.535Z,15.40
2019-05-18T19:25:49.498Z,15.20
2019-05-18T19:28:19.546Z,15.10
2019-05-18T19:30:49.526Z,14.90
2019-05-18T19:33:20.347Z,14.70
2019-05-18T19:35:50.404Z,14.60
2019-05-18T19:38:20.307Z,14.50
2019-05-18T19:40:50.331Z,14.30
2019-05-18T19:43:20.191Z,14.10
2019-05-18T19:45:50.479Z,13.90
2019-05-18T19:48:20.416Z,13.70
2019-05-18T19:50:50.411Z,13.60
2019-05-18T19:53:20.533Z,13.40
2019-05-18T19:55:50.979Z,13.30
2019-05-18T19:58:21.199Z,13.20
2019-05-18T20:00:51.149Z,13.20
2019-05-18T20:03:21.142Z,13.10
2019-05-18T20:05:50.979Z,13.00
2019-05-18T20:08:20.881Z,13.00
2019-05-18T20:10:50.879Z,12.90
2019-05-18T20:13:20.993Z,12.80
2019-05-18T20:15:50.879Z,12.70
2019-05-18T20:18:21.112Z,12.70
2019-05-18T20:20:52.039Z,12.50
2019-05-18T20:23:22.230Z,12.40
2019-05-18T20:25:52.158Z,12.40
2019-05-18T20:28:24.098Z,12.30
2019-05-18T20:30:53.843Z,12.20
2019-05-18T20:33:23.806Z,12.10
2019-05-18T20:35:53.739Z,12.00
2019-05-18T20:38:23.683Z,12.00
2019-05-18T20:40:53.674Z,11.90
2019-05-18T20:43:23.575Z,11.70
2019-05-18T20:45:53.585Z,11.70
2019-05-18T20:48:23.778Z,11.50
2019-05-18T20:50:53.872Z,11.50
2019-05-18T20:53:24.134Z,11.50
2019-05-18T20:55:54.222Z,11.60
2019-05-18T20:58:38.774Z,11.50
2019-05-18T21:00:56.175Z,11.50
2019-05-18T21:03:26.781Z,11.50
2019-05-18T21:05:56.883Z,11.50
2019-05-18T21:08:26.819Z,11.60
2019-05-18T21:10:56.834Z,11.60
2019-05-18T21:13:26.943Z,11.60
2019-05-18T21:15:57.422Z,11.60
2019-05-18T21:18:28.013Z,11.60
2019-05-18T21:20:58.106Z,11.50
2019-05-18T21:23:28.405Z,11.40
2019-05-18T21:25:58.381Z,11.40
2019-05-18T21:28:28.358Z,11.40
2019-05-18T21:30:58.267Z,11.40
2019-05-18T21:33:28.339Z,11.40
2019-05-18T21:35:58.312Z,11.30
2019-05-18T21:38:28.259Z,11.20
2019-05-18T21:40:58.698Z,11.10
2019-05-18T21:43:28.655Z,11.00
2019-05-18T21:45:58.873Z,10.90
2019-05-18T21:48:28.947Z,10.80
2019-05-18T21:50:59.210Z,10.80
2019-05-18T21:53:29.294Z,10.70
2019-05-18T21:55:59.218Z,10.60
2019-05-18T21:58:29.342Z,10.50
2019-05-18T22:00:59.387Z,10.50
2019-05-18T22:03:29.435Z,10.40
2019-05-18T22:05:59.461Z,10.40
2019-05-18T22:08:29.473Z,10.40
2019-05-18T22:10:59.522Z,10.40
2019-05-18T22:13:29.595Z,10.40
2019-05-18T22:15:59.618Z,10.40
2019-05-18T22:18:29.583Z,10.30
2019-05-18T22:20:59.591Z,10.20
2019-05-18T22:23:29.650Z,10.10
2019-05-18T22:25:59.495Z,10.00
2019-05-18T22:28:29.471Z,10.00
2019-05-18T22:30:59.362Z,10.00
2019-05-18T22:33:29.319Z,10.00
2019-05-18T22:35:59.445Z,10.00
2019-05-18T22:38:29.734Z,10.00
2019-05-18T22:40:59.606Z,10.10
2019-05-18T22:43:29.527Z,10.10
2019-05-18T22:45:59.667Z,10.10
2019-05-18T22:48:40.742Z,10.10
2019-05-18T22:51:01.422Z,10.00
2019-05-18T22:53:31.366Z,10.00
2019-05-18T22:56:02.359Z,9.90
2019-05-18T22:58:32.281Z,9.90
2019-05-18T23:01:02.098Z,9.90
2019-05-18T23:03:31.931Z,9.80
2019-05-18T23:06:01.785Z,9.70
2019-05-18T23:08:31.529Z,9.70
2019-05-18T23:11:01.269Z,9.60
2019-05-18T23:13:31.077Z,9.60
2019-05-18T23:16:00.899Z,9.50
2019-05-18T23:18:30.841Z,9.40
2019-05-18T23:21:00.733Z,9.40
2019-05-18T23:23:30.586Z,9.30
2019-05-18T23:26:00.654Z,9.30
2019-05-18T23:28:30.467Z,9.30
2019-05-18T23:31:00.346Z,9.20
2019-05-18T23:33:31.058Z,9.10
2019-05-18T23:36:00.861Z,9.10
2019-05-18T23:38:30.754Z,9.10
2019-05-18T23:41:00.479Z,9.10
2019-05-18T23:43:30.293Z,9.10
2019-05-18T23:46:00.207Z,9.10
2019-05-18T23:48:30.185Z,9.10
2019-05-18T23:50:59.993Z,9.10
2019-05-18T23:53:29.868Z,9.10
2019-05-18T23:55:59.739Z,9.00
2019-05-18T23:58:29.686Z,8.90
